createdAt,value
2022-10-29T00:00:52.998Z,75.19
2022-10-29T00:03:20.431Z,75.16
2022-10-29T00:06:16.586Z,75.03
2022-10-29T00:08:43.372Z,75.18
2022-10-29T00:11:13.536Z,75.40
2022-10-29T00:13:40.678Z,75.36
2022-10-29T00:16:16.635Z,75.73
2022-10-29T00:18:44.017Z,75.25
2022-10-29T00:21:13.716Z,75.64
2022-10-29T00:23:40.535Z,75.81
2022-10-29T00:26:07.457Z,75.76
2022-10-29T00:28:34.493Z,75.81
2022-10-29T00:31:12.318Z,76.06
2022-10-29T00:33:39.072Z,76.26
2022-10-29T00:36:11.843Z,76.09
2022-10-29T00:38:38.753Z,76.46
2022-10-29T00:41:07.021Z,76.50
2022-10-29T00:43:35.354Z,76.91
2022-10-29T00:46:08.422Z,78.30
2022-10-29T00:48:36.659Z,78.23
2022-10-29T00:51:05.695Z,79.57
2022-10-29T00:53:34.989Z,78.97
2022-10-29T00:56:02.122Z,78.93
2022-10-29T00:58:29.066Z,79.08
2022-10-29T01:00:55.730Z,79.73
2022-10-29T01:03:22.452Z,79.50
2022-10-29T01:05:49.512Z,79.27
2022-10-29T01:08:16.762Z,78.51
2022-10-29T01:11:05.260Z,78.76
2022-10-29T01:13:57.796Z,78.34
2022-10-29T01:16:24.370Z,78.44
2022-10-29T01:19:09.892Z,77.85
2022-10-29T01:21:36.533Z,78.05
2022-10-29T01:24:25.780Z,77.56
2022-10-29T01:27:10.748Z,77.06
2022-10-29T01:29:51.151Z,77.29
2022-10-29T01:32:47.046Z,76.89
2022-10-29T01:35:34.536Z,76.85
2022-10-29T01:38:29.100Z,76.73
2022-10-29T01:41:03.753Z,76.78
2022-10-29T01:43:55.272Z,76.63
2022-10-29T01:46:23.135Z,76.52
2022-10-29T01:48:52.762Z,76.68
2022-10-29T01:51:22.626Z,76.53
2022-10-29T01:53:49.667Z,76.28
2022-10-29T01:56:16.477Z,76.56
2022-10-29T01:58:47.920Z,76.22
2022-10-29T02:01:32.834Z,76.51
2022-10-29T02:04:18.297Z,76.62
2022-10-29T02:07:12.279Z,76.22
2022-10-29T02:09:46.201Z,76.59
2022-10-29T02:12:31.681Z,76.24
2022-10-29T02:15:03.650Z,76.34
2022-10-29T02:17:34.151Z,76.25
2022-10-29T02:20:09.528Z,76.63
2022-10-29T02:22:36.185Z,76.51
2022-10-29T02:25:03.338Z,76.51
2022-10-29T02:27:30.038Z,76.70
2022-10-29T02:29:56.690Z,76.42
2022-10-29T02:32:23.459Z,76.63
2022-10-29T02:34:50.207Z,76.33
2022-10-29T02:37:16.852Z,76.87
2022-10-29T02:39:43.523Z,76.64
2022-10-29T02:42:10.485Z,77.08
2022-10-29T02:44:37.145Z,77.05
2022-10-29T02:47:03.841Z,77.04
2022-10-29T02:49:30.508Z,76.98
2022-10-29T02:51:57.153Z,77.20
2022-10-29T02:54:23.892Z,77.34
2022-10-29T02:56:50.585Z,77.57
2022-10-29T02:59:17.239Z,77.85
2022-10-29T03:01:44.046Z,77.85
2022-10-29T03:04:11.751Z,77.55
2022-10-29T03:06:38.435Z,77.69
2022-10-29T03:09:05.456Z,77.79
2022-10-29T03:11:33.103Z,77.76
2022-10-29T03:13:59.835Z,77.53
2022-10-29T03:16:26.566Z,77.31
2022-10-29T03:18:53.231Z,77.24
2022-10-29T03:21:19.936Z,77.29
2022-10-29T03:23:46.615Z,77.48
2022-10-29T03:26:13.294Z,77.15
2022-10-29T03:28:40.133Z,77.06
2022-10-29T03:31:06.869Z,77.04
2022-10-29T03:33:33.538Z,76.98
2022-10-29T03:36:01.801Z,76.79
2022-10-29T03:38:28.701Z,76.67
2022-10-29T03:40:55.827Z,76.80
2022-10-29T03:43:22.509Z,76.50
2022-10-29T03:45:57.068Z,76.75
2022-10-29T03:48:25.369Z,76.75
2022-10-29T03:51:02.747Z,76.33
2022-10-29T03:53:29.676Z,76.13
2022-10-29T03:55:56.865Z,76.15
2022-10-29T03:58:24.569Z,76.50
2022-10-29T04:00:55.639Z,76.64
2022-10-29T04:03:22.339Z,76.16
2022-10-29T04:05:49.031Z,76.17
2022-10-29T04:08:15.711Z,76.34
2022-10-29T04:10:47.009Z,76.37
2022-10-29T04:13:14.456Z,76.56
2022-10-29T04:15:41.250Z,76.55
2022-10-29T04:18:08.147Z,76.61
2022-10-29T04:20:59.755Z,76.65
2022-10-29T04:28:55.477Z,76.70
2022-10-29T04:31:22.168Z,76.43
2022-10-29T04:33:48.812Z,76.52
2022-10-29T04:36:15.470Z,76.54
2022-10-29T04:38:42.166Z,76.43
2022-10-29T04:41:08.869Z,76.56
2022-10-29T04:43:35.591Z,76.42
2022-10-29T04:46:02.915Z,76.44
2022-10-29T04:48:29.973Z,76.43
2022-10-29T04:50:56.632Z,76.31
2022-10-29T04:53:23.367Z,76.40
2022-10-29T04:55:50.040Z,76.51
2022-10-29T04:58:18.783Z,76.83
2022-10-29T05:00:46.042Z,76.62
2022-10-29T05:03:13.266Z,76.59
2022-10-29T05:05:40.409Z,76.44
2022-10-29T05:08:07.482Z,76.63
2022-10-29T05:10:35.771Z,76.79
2022-10-29T05:13:05.668Z,77.06
2022-10-29T05:15:32.328Z,76.95
2022-10-29T05:17:59.137Z,76.76
2022-10-29T05:20:26.742Z,77.03
2022-10-29T05:23:07.847Z,76.80
2022-10-29T05:25:36.433Z,77.11
2022-10-29T05:28:05.372Z,76.81
2022-10-29T05:30:32.713Z,76.68
2022-10-29T05:32:59.491Z,76.52
2022-10-29T05:35:26.813Z,76.83
2022-10-29T05:37:54.221Z,76.49
2022-10-29T05:40:21.809Z,76.45
2022-10-29T05:42:48.631Z,76.22
2022-10-29T05:45:15.486Z,76.27
2022-10-29T05:47:42.523Z,76.00
2022-10-29T05:50:09.737Z,76.27
2022-10-29T05:52:36.376Z,75.89
2022-10-29T05:55:03.134Z,75.93
2022-10-29T05:57:29.802Z,75.61
2022-10-29T05:59:56.555Z,75.57
2022-10-29T06:02:23.343Z,75.71
2022-10-29T06:04:50.129Z,75.79
2022-10-29T06:07:16.750Z,75.37
2022-10-29T06:09:43.429Z,75.43
2022-10-29T06:12:10.067Z,75.70
2022-10-29T06:14:36.744Z,75.66
2022-10-29T06:17:03.398Z,75.78
2022-10-29T06:19:30.252Z,75.40
2022-10-29T06:22:00.328Z,75.57
2022-10-29T06:24:27.636Z,75.55
2022-10-29T06:26:54.710Z,75.81
2022-10-29T06:29:21.430Z,75.82
2022-10-29T06:31:48.080Z,75.96
2022-10-29T06:34:15.034Z,76.14
2022-10-29T06:36:41.862Z,76.33
2022-10-29T06:39:08.649Z,76.53
2022-10-29T06:41:35.363Z,76.53
2022-10-29T06:44:02.093Z,76.66
2022-10-29T06:46:28.793Z,76.76
2022-10-29T06:48:55.461Z,76.91
2022-10-29T06:53:50.107Z,77.04
2022-10-29T06:56:16.844Z,77.25
2022-10-29T06:58:43.617Z,77.56
2022-10-29T07:01:10.497Z,77.51
2022-10-29T07:03:37.279Z,77.74
2022-10-29T07:06:04.278Z,77.76
2022-10-29T07:08:31.003Z,77.94
2022-10-29T07:10:57.934Z,77.83
2022-10-29T07:13:24.702Z,78.10
2022-10-29T07:15:51.517Z,77.92
2022-10-29T07:18:18.226Z,78.27
2022-10-29T07:20:45.552Z,78.26
2022-10-29T07:23:13.281Z,78.16
2022-10-29T07:25:41.004Z,78.60
2022-10-29T07:28:13.732Z,78.74
2022-10-29T07:30:40.937Z,79.00
2022-10-29T07:33:07.636Z,78.90
2022-10-29T07:35:35.267Z,78.78
2022-10-29T07:38:08.764Z,78.72
2022-10-29T07:40:41.145Z,78.68
2022-10-29T07:43:09.212Z,79.17
2022-10-29T07:45:35.922Z,79.07
2022-10-29T07:48:04.756Z,79.43
2022-10-29T07:50:32.086Z,79.57
2022-10-29T07:53:02.739Z,79.80
2022-10-29T07:58:02.517Z,79.93
2022-10-29T08:00:30.481Z,80.13
2022-10-29T08:02:57.563Z,80.32
2022-10-29T08:05:25.545Z,80.54
2022-10-29T08:07:56.103Z,80.87
2022-10-29T08:10:26.534Z,80.94
2022-10-29T08:12:55.581Z,81.19
2022-10-29T08:15:23.331Z,80.91
2022-10-29T08:17:50.465Z,80.90
2022-10-29T08:20:17.691Z,81.25
2022-10-29T08:22:44.443Z,80.83
2022-10-29T08:25:12.173Z,81.08
2022-10-29T08:27:39.135Z,80.99
2022-10-29T08:30:10.881Z,80.88
2022-10-29T08:32:37.607Z,80.39
2022-10-29T08:35:06.349Z,79.53
2022-10-29T08:37:33.006Z,79.24
2022-10-29T08:39:59.653Z,78.86
2022-10-29T08:42:41.732Z,78.11
2022-10-29T08:45:25.087Z,77.31
2022-10-29T08:48:22.744Z,76.99
2022-10-29T08:50:53.870Z,76.12
2022-10-29T08:53:32.840Z,75.93
2022-10-29T08:56:00.438Z,75.28
2022-10-29T08:58:37.618Z,74.81
2022-10-29T09:01:10.534Z,73.64
2022-10-29T09:03:37.566Z,73.02
2022-10-29T09:06:16.532Z,72.72
2022-10-29T09:08:52.345Z,72.45
2022-10-29T09:11:56.767Z,71.73
2022-10-29T09:14:42.210Z,71.97
2022-10-29T09:17:37.358Z,70.73
2022-10-29T09:20:38.036Z,70.60
2022-10-29T09:23:29.767Z,69.80
2022-10-29T09:26:03.334Z,68.54
2022-10-29T09:28:48.613Z,67.75
2022-10-29T09:31:38.093Z,66.09
2022-10-29T09:34:12.247Z,65.82
2022-10-29T09:36:39.288Z,65.02
2022-10-29T09:39:14.775Z,64.64
2022-10-29T09:41:41.600Z,64.30
2022-10-29T09:44:20.627Z,64.24
2022-10-29T09:47:08.605Z,63.83
2022-10-29T09:49:48.762Z,64.56
2022-10-29T09:52:23.961Z,64.48
2022-10-29T09:54:52.024Z,64.85
2022-10-29T09:57:23.963Z,65.35
2022-10-29T09:59:55.926Z,65.71
2022-10-29T10:02:39.112Z,65.65
2022-10-29T10:05:29.513Z,66.14
2022-10-29T10:08:11.131Z,66.18
2022-10-29T10:10:51.357Z,66.78
2022-10-29T10:13:19.729Z,66.21
2022-10-29T10:15:53.365Z,66.88
2022-10-29T10:18:28.665Z,66.75
2022-10-29T10:21:09.411Z,66.17
2022-10-29T10:23:42.513Z,65.95
2022-10-29T10:26:44.272Z,64.78
2022-10-29T10:29:18.333Z,64.64
2022-10-29T10:31:57.281Z,64.38
2022-10-29T10:34:36.615Z,63.07
2022-10-29T10:37:05.847Z,62.41
2022-10-29T10:39:37.208Z,60.46
2022-10-29T10:42:05.873Z,60.54
2022-10-29T10:44:32.911Z,61.02
2022-10-29T10:47:04.804Z,59.75
2022-10-29T10:49:34.277Z,60.55
2022-10-29T10:52:04.475Z,60.16
2022-10-29T10:54:42.187Z,58.90
2022-10-29T10:57:12.046Z,59.83
2022-10-29T10:59:51.671Z,58.76
2022-10-29T11:02:27.487Z,58.80
2022-10-29T11:05:00.915Z,59.44
2022-10-29T11:07:34.396Z,60.12
2022-10-29T11:10:03.876Z,60.41
2022-10-29T11:12:32.692Z,59.73
2022-10-29T11:15:18.587Z,60.43
2022-10-29T11:17:56.804Z,59.67
2022-10-29T11:20:33.831Z,58.81
2022-10-29T11:23:34.376Z,59.93
2022-10-29T11:26:24.401Z,60.21
2022-10-29T11:28:57.381Z,60.63
2022-10-29T11:31:36.646Z,60.99
2022-10-29T11:34:10.574Z,61.63
2022-10-29T11:36:44.913Z,61.77
2022-10-29T11:39:36.171Z,62.40
2022-10-29T11:42:02.902Z,62.03
2022-10-29T11:44:32.975Z,61.65
2022-10-29T11:47:09.558Z,61.94
2022-10-29T11:49:45.321Z,61.53
2022-10-29T11:52:20.534Z,62.25
2022-10-29T11:54:53.717Z,62.67
2022-10-29T11:57:31.841Z,62.03
2022-10-29T12:00:07.519Z,63.01
2022-10-29T12:02:43.239Z,63.02
2022-10-29T12:05:23.502Z,62.20
2022-10-29T12:08:08.380Z,62.25
2022-10-29T12:11:00.175Z,63.02
2022-10-29T12:13:51.768Z,62.92
2022-10-29T12:16:56.590Z,63.54
2022-10-29T12:19:29.435Z,63.28
2022-10-29T12:22:13.524Z,63.18
2022-10-29T12:24:57.877Z,64.00
2022-10-29T12:27:30.787Z,64.23
2022-10-29T12:30:01.992Z,64.08
2022-10-29T12:32:38.212Z,63.64
2022-10-29T12:35:31.270Z,63.70
2022-10-29T12:38:39.615Z,63.98
2022-10-29T12:41:13.722Z,64.38
2022-10-29T12:43:41.903Z,64.85
2022-10-29T12:46:31.685Z,64.27
2022-10-29T12:49:29.300Z,64.01
2022-10-29T12:51:59.276Z,62.59
2022-10-29T12:54:26.117Z,63.23
2022-10-29T12:56:53.038Z,62.74
2022-10-29T12:59:36.833Z,62.96
2022-10-29T13:02:19.725Z,61.74
2022-10-29T13:05:34.226Z,62.11
2022-10-29T13:08:04.006Z,62.03
2022-10-29T13:10:33.946Z,62.71
2022-10-29T13:13:18.914Z,62.92
2022-10-29T13:16:01.577Z,62.49
2022-10-29T13:18:29.307Z,62.60
2022-10-29T13:20:56.206Z,61.79
2022-10-29T13:23:22.839Z,62.36
2022-10-29T13:25:54.031Z,62.61
2022-10-29T13:28:20.860Z,64.77
2022-10-29T13:30:49.480Z,63.05
2022-10-29T13:33:19.071Z,61.88
2022-10-29T13:35:54.601Z,62.82
2022-10-29T13:38:58.023Z,63.26
2022-10-29T13:41:40.441Z,63.29
2022-10-29T13:44:22.866Z,63.57
2022-10-29T13:46:56.625Z,62.81
2022-10-29T13:49:31.087Z,63.33
2022-10-29T13:52:03.585Z,63.32
2022-10-29T13:54:47.181Z,63.41
2022-10-29T13:57:13.816Z,63.67
2022-10-29T13:59:50.133Z,64.11
2022-10-29T14:02:26.531Z,64.27
2022-10-29T14:04:56.926Z,64.30
2022-10-29T14:07:30.440Z,64.04
2022-10-29T14:10:02.025Z,64.62
2022-10-29T14:12:31.359Z,64.67
2022-10-29T14:15:11.063Z,64.46
2022-10-29T14:17:37.774Z,64.78
2022-10-29T14:20:04.678Z,65.58
2022-10-29T14:22:39.177Z,65.41
2022-10-29T14:25:24.759Z,65.59
2022-10-29T14:28:32.005Z,65.96
2022-10-29T14:31:00.377Z,65.95
2022-10-29T14:33:29.359Z,66.42
2022-10-29T14:36:11.746Z,66.33
2022-10-29T14:38:51.446Z,65.92
2022-10-29T14:41:19.061Z,66.99
2022-10-29T14:43:52.195Z,67.35
2022-10-29T14:46:30.115Z,67.20
2022-10-29T14:49:20.968Z,68.14
2022-10-29T14:51:50.842Z,67.78
2022-10-29T14:54:22.340Z,68.02
2022-10-29T14:56:51.862Z,68.28
2022-10-29T14:59:21.688Z,67.81
2022-10-29T15:01:57.132Z,68.22
2022-10-29T15:04:31.758Z,67.85
2022-10-29T15:07:21.835Z,67.90
2022-10-29T15:09:49.497Z,68.15
2022-10-29T15:12:24.612Z,68.45
2022-10-29T15:14:54.517Z,68.57
2022-10-29T15:17:29.554Z,68.65
2022-10-29T15:20:05.340Z,68.64
2022-10-29T15:22:36.144Z,69.06
2022-10-29T15:25:05.540Z,68.76
2022-10-29T15:27:32.444Z,68.79
2022-10-29T15:29:59.763Z,69.16
2022-10-29T15:32:30.489Z,69.26
2022-10-29T15:34:59.517Z,68.94
2022-10-29T15:37:40.922Z,68.99
2022-10-29T15:40:26.148Z,69.31
2022-10-29T15:42:53.979Z,69.59
2022-10-29T15:45:23.644Z,69.90
2022-10-29T15:48:05.880Z,69.96
2022-10-29T15:50:38.590Z,69.93
2022-10-29T15:53:07.337Z,70.11
2022-10-29T15:55:35.527Z,70.82
2022-10-29T15:58:04.679Z,70.90
2022-10-29T16:00:32.081Z,70.53
2022-10-29T16:03:13.957Z,70.33
2022-10-29T16:05:42.191Z,70.60
2022-10-29T16:08:17.900Z,70.77
2022-10-29T16:10:44.679Z,70.64
2022-10-29T16:13:11.746Z,70.95
2022-10-29T16:15:41.599Z,70.78
2022-10-29T16:18:10.925Z,70.56
2022-10-29T16:20:37.673Z,70.83
2022-10-29T16:23:04.385Z,70.82
2022-10-29T16:25:31.182Z,70.87
2022-10-29T16:27:58.256Z,71.19
2022-10-29T16:30:25.310Z,71.27
2022-10-29T16:32:52.722Z,71.33
2022-10-29T16:35:24.280Z,71.44
2022-10-29T16:37:51.889Z,71.49
2022-10-29T16:40:20.493Z,71.75
2022-10-29T16:42:47.754Z,71.70
2022-10-29T16:45:17.087Z,71.82
2022-10-29T16:47:43.799Z,71.81
2022-10-29T16:50:16.439Z,71.98
2022-10-29T16:52:43.453Z,72.63
2022-10-29T16:55:10.952Z,72.57
2022-10-29T16:57:37.932Z,72.42
2022-10-29T17:00:06.454Z,72.18
2022-10-29T17:02:33.122Z,72.36
2022-10-29T17:04:59.809Z,72.56
2022-10-29T17:07:26.548Z,72.70
2022-10-29T17:09:53.243Z,72.63
2022-10-29T17:12:19.926Z,73.00
2022-10-29T17:14:46.637Z,72.76
2022-10-29T17:17:13.410Z,72.90
2022-10-29T17:19:40.076Z,73.13
2022-10-29T17:22:10.692Z,73.21
2022-10-29T17:24:37.503Z,73.31
2022-10-29T17:27:04.271Z,73.73
2022-10-29T17:29:36.154Z,73.70
2022-10-29T17:34:30.470Z,73.80
2022-10-29T17:36:57.184Z,73.42
2022-10-29T17:39:23.861Z,73.64
2022-10-29T17:41:51.105Z,73.48
2022-10-29T17:44:17.891Z,73.70
2022-10-29T17:46:44.778Z,73.63
2022-10-29T17:49:11.515Z,73.71
2022-10-29T17:51:38.200Z,73.63
2022-10-29T17:54:04.953Z,73.64
2022-10-29T17:56:32.179Z,73.86
2022-10-29T17:58:58.857Z,74.13
2022-10-29T18:01:25.707Z,74.08
2022-10-29T18:03:52.488Z,74.02
2022-10-29T18:06:19.472Z,73.52
2022-10-29T18:08:46.152Z,73.47
2022-10-29T18:11:18.931Z,73.38
2022-10-29T18:13:46.781Z,73.36
2022-10-29T18:16:19.054Z,73.57
2022-10-29T18:19:00.927Z,73.31
2022-10-29T18:21:29.509Z,73.43
2022-10-29T18:23:56.326Z,73.49
2022-10-29T18:26:31.268Z,73.45
2022-10-29T18:28:59.383Z,72.98
2022-10-29T18:31:30.015Z,73.41
2022-10-29T18:33:57.707Z,73.07
2022-10-29T18:36:24.494Z,73.05
2022-10-29T18:38:52.395Z,73.13
2022-10-29T18:41:19.184Z,73.19
2022-10-29T18:43:46.141Z,73.28
2022-10-29T18:46:13.359Z,73.34
2022-10-29T18:48:41.833Z,73.24
2022-10-29T18:51:11.474Z,73.44
2022-10-29T18:53:38.990Z,73.25
2022-10-29T18:56:16.618Z,73.45
2022-10-29T18:58:43.673Z,73.89
2022-10-29T19:01:24.608Z,73.55
2022-10-29T19:03:53.175Z,73.75
2022-10-29T19:06:20.794Z,73.86
2022-10-29T19:08:47.646Z,74.35
2022-10-29T19:11:17.230Z,74.03
2022-10-29T19:13:44.026Z,74.42
2022-10-29T19:16:12.742Z,74.73
2022-10-29T19:18:40.824Z,74.50
2022-10-29T19:21:08.350Z,74.42
2022-10-29T19:23:35.168Z,74.52
2022-10-29T19:26:09.233Z,74.43
2022-10-29T19:28:36.603Z,74.30
2022-10-29T19:31:11.783Z,74.08
2022-10-29T19:33:38.923Z,74.19
2022-10-29T19:36:07.154Z,74.20
2022-10-29T19:38:34.559Z,74.02
2022-10-29T19:41:01.281Z,73.94
2022-10-29T19:43:31.375Z,74.00
2022-10-29T19:45:58.397Z,74.32
2022-10-29T19:48:25.530Z,74.01
2022-10-29T19:50:56.609Z,73.89
2022-10-29T19:53:23.950Z,74.01
2022-10-29T19:55:51.122Z,74.34
2022-10-29T19:58:18.524Z,74.13
2022-10-29T20:00:45.406Z,74.20
2022-10-29T20:03:13.283Z,74.18
2022-10-29T20:05:40.529Z,74.51
2022-10-29T20:08:11.367Z,74.41
2022-10-29T20:10:41.623Z,74.39
2022-10-29T20:13:08.324Z,74.86
2022-10-29T20:15:35.088Z,75.08
2022-10-29T20:18:01.778Z,74.99
2022-10-29T20:20:28.533Z,75.05
2022-10-29T20:22:55.665Z,75.11
2022-10-29T20:25:24.050Z,75.03
2022-10-29T20:27:50.956Z,74.98
2022-10-29T20:30:17.933Z,75.15
2022-10-29T20:32:44.623Z,75.29
2022-10-29T20:35:11.318Z,75.23
2022-10-29T20:37:38.062Z,75.14
2022-10-29T20:40:05.515Z,75.23
2022-10-29T20:42:32.187Z,75.58
2022-10-29T20:44:58.892Z,75.78
2022-10-29T20:47:25.568Z,75.57
2022-10-29T20:49:52.248Z,75.57
2022-10-29T20:52:18.960Z,75.35
2022-10-29T20:54:45.724Z,75.42
2022-10-29T20:57:12.392Z,75.38
2022-10-29T20:59:39.173Z,75.20
2022-10-29T21:02:06.128Z,75.25
2022-10-29T21:04:33.095Z,75.16
2022-10-29T21:06:59.770Z,75.49
2022-10-29T21:09:27.411Z,75.78
2022-10-29T21:11:54.933Z,75.50
2022-10-29T21:14:23.548Z,75.43
2022-10-29T21:16:50.379Z,75.65
2022-10-29T21:19:17.045Z,75.64
2022-10-29T21:21:43.795Z,75.92
2022-10-29T21:24:10.468Z,75.66
2022-10-29T21:26:37.174Z,76.03
2022-10-29T21:29:03.885Z,76.09
2022-10-29T21:31:30.642Z,75.71
2022-10-29T21:33:57.330Z,75.87
2022-10-29T21:36:24.400Z,76.15
2022-10-29T21:38:51.204Z,76.32
2022-10-29T21:41:18.558Z,76.10
2022-10-29T21:43:45.283Z,76.42
2022-10-29T21:46:12.046Z,76.41
2022-10-29T21:48:38.756Z,76.22
2022-10-29T21:51:11.360Z,76.61
2022-10-29T21:53:38.409Z,76.65
2022-10-29T21:56:06.874Z,76.92
2022-10-29T21:58:33.884Z,76.76
2022-10-29T22:01:04.833Z,76.81
2022-10-29T22:03:33.538Z,76.96
2022-10-29T22:06:07.930Z,76.83
2022-10-29T22:08:35.268Z,76.80
2022-10-29T22:11:02.649Z,76.77
2022-10-29T22:13:29.951Z,76.78
2022-10-29T22:15:56.899Z,76.95
2022-10-29T22:18:25.460Z,76.94
2022-10-29T22:21:12.237Z,77.04
2022-10-29T22:23:45.602Z,77.00
2022-10-29T22:26:13.736Z,76.94
2022-10-29T22:28:40.443Z,76.94
2022-10-29T22:31:07.350Z,77.23
2022-10-29T22:33:35.311Z,77.33
2022-10-29T22:36:10.600Z,77.41
2022-10-29T22:38:37.889Z,77.24
2022-10-29T22:41:06.204Z,77.43
2022-10-29T22:43:33.146Z,77.05
2022-10-29T22:45:59.877Z,77.18
2022-10-29T22:48:26.539Z,77.54
2022-10-29T22:51:03.469Z,77.55
2022-10-29T22:53:30.472Z,77.65
2022-10-29T22:55:57.164Z,77.33
2022-10-29T22:58:24.034Z,77.55
2022-10-29T23:01:01.054Z,77.60
2022-10-29T23:03:27.837Z,77.33
2022-10-29T23:06:02.639Z,77.23
2022-10-29T23:08:30.180Z,77.58
2022-10-29T23:10:56.989Z,77.37
2022-10-29T23:13:23.725Z,77.31
2022-10-29T23:15:51.933Z,77.39
2022-10-29T23:18:19.137Z,77.42
2022-10-29T23:20:45.937Z,77.11
2022-10-29T23:23:13.472Z,77.32
2022-10-29T23:25:41.751Z,77.23
2022-10-29T23:28:09.238Z,77.13
2022-10-29T23:30:36.078Z,77.27
2022-10-29T23:33:02.776Z,76.83
2022-10-29T23:35:29.506Z,77.02
2022-10-29T23:37:56.561Z,77.11
2022-10-29T23:40:23.469Z,76.85
2022-10-29T23:42:50.258Z,76.64
2022-10-29T23:45:17.117Z,76.73
2022-10-29T23:47:43.819Z,76.65
2022-10-29T23:50:10.513Z,76.41
2022-10-29T23:52:37.200Z,76.27
2022-10-29T23:55:03.940Z,76.29
2022-10-29T23:57:30.658Z,75.98
2022-10-29T23:59:57.326Z,76.06
